createdAt,value
2022-12-03T00:02:12.045Z,31.30
2022-12-03T00:04:39.911Z,28.05
2022-12-03T00:07:07.662Z,38.92
2022-12-03T00:09:36.542Z,18.35
2022-12-03T00:12:04.819Z,21.77
2022-12-03T00:14:32.580Z,19.70
2022-12-03T00:17:01.582Z,17.13
2022-12-03T00:19:29.574Z,15.15
2022-12-03T00:21:57.281Z,13.18
2022-12-03T00:24:24.855Z,16.48
2022-12-03T00:26:52.568Z,16.15
2022-12-03T00:29:20.209Z,11.20
2022-12-03T00:31:47.965Z,11.05
2022-12-03T00:34:17.125Z,13.63
2022-12-03T07:20:40.770Z,12.13
2022-12-03T07:23:08.330Z,10.88
2022-12-03T07:25:35.935Z,9.85
2022-12-03T07:28:04.227Z,8.05
2022-12-03T07:30:31.861Z,7.15
2022-12-03T07:32:59.451Z,7.20
2022-12-03T07:35:27.221Z,7.20
2022-12-03T07:37:56.275Z,5.72
2022-12-03T07:40:23.842Z,7.68
2022-12-03T07:42:51.679Z,6.55
2022-12-03T07:45:19.267Z,6.65
2022-12-03T07:47:46.838Z,5.72
2022-12-03T07:50:14.687Z,6.43
2022-12-03T07:52:42.241Z,7.00
2022-12-03T07:55:12.154Z,6.82
2022-12-03T07:57:40.019Z,6.65
2022-12-03T08:00:08.502Z,6.80
2022-12-03T08:02:36.178Z,6.30
2022-12-03T08:05:04.625Z,6.45
2022-12-03T08:07:32.397Z,6.25
2022-12-03T08:10:00.267Z,6.03
2022-12-03T08:12:30.795Z,6.60
2022-12-03T08:14:58.380Z,7.00
2022-12-03T08:17:27.291Z,6.72
2022-12-03T08:19:55.018Z,5.85
2022-12-03T08:22:22.679Z,6.00
2022-12-03T08:24:50.223Z,6.40
2022-12-03T08:27:19.525Z,6.25
2022-12-03T08:29:48.500Z,7.00
2022-12-03T08:32:16.142Z,7.25
2022-12-03T08:34:45.065Z,7.60
2022-12-03T08:37:16.885Z,7.10
2022-12-03T08:39:46.341Z,6.93
2022-12-03T08:42:18.803Z,7.20
2022-12-03T08:44:48.122Z,5.82
2022-12-03T08:47:20.120Z,5.93
2022-12-03T08:49:51.944Z,6.55
2022-12-03T08:52:20.780Z,6.35
2022-12-03T08:54:52.556Z,6.63
2022-12-03T08:57:27.307Z,7.00
2022-12-03T09:00:00.144Z,5.82
2022-12-03T09:02:33.084Z,7.28
2022-12-03T09:05:13.383Z,6.70
2022-12-03T09:07:41.099Z,7.53
2022-12-03T09:10:09.407Z,6.28
2022-12-03T09:12:37.208Z,7.25
2022-12-03T09:15:07.519Z,6.90
2022-12-03T09:17:35.310Z,6.25
2022-12-03T09:20:03.339Z,6.90
2022-12-03T09:22:31.519Z,6.53
2022-12-03T09:24:59.069Z,6.38
2022-12-03T09:27:26.838Z,7.50
2022-12-03T09:29:54.392Z,7.75
2022-12-03T09:32:23.407Z,6.82
2022-12-03T09:34:51.544Z,6.95
2022-12-03T09:37:19.367Z,6.45
2022-12-03T09:39:46.964Z,6.22
2022-12-03T09:42:15.456Z,6.97
2022-12-03T09:44:43.721Z,6.40
2022-12-03T09:47:11.642Z,6.40
2022-12-03T09:49:41.837Z,8.05
2022-12-03T09:52:16.956Z,7.95
2022-12-03T09:54:47.567Z,7.70
2022-12-03T09:57:16.069Z,6.77
2022-12-03T09:59:43.651Z,7.15
2022-12-03T10:02:19.958Z,9.45
2022-12-03T10:04:49.486Z,6.60
2022-12-03T10:07:17.260Z,6.85
2022-12-03T10:09:45.283Z,6.53
2022-12-03T10:12:14.033Z,6.45
2022-12-03T10:14:42.845Z,7.25
2022-12-03T10:17:11.957Z,6.45
2022-12-03T10:19:39.713Z,8.48
2022-12-03T10:22:09.090Z,7.15
2022-12-03T10:24:37.875Z,7.53
2022-12-03T10:27:21.525Z,7.57
2022-12-03T10:29:55.154Z,7.57
2022-12-03T10:32:26.326Z,7.35
2022-12-03T10:35:08.244Z,7.07
2022-12-03T10:37:37.264Z,7.97
2022-12-03T10:40:07.027Z,8.32
2022-12-03T10:42:36.721Z,6.80
2022-12-03T10:45:16.496Z,7.28
2022-12-03T10:48:01.667Z,7.63
2022-12-03T10:50:29.639Z,7.35
2022-12-03T10:52:58.687Z,7.55
2022-12-03T20:39:18.354Z,9.77
2022-12-03T20:41:45.966Z,12.32
2022-12-03T20:44:13.524Z,9.75
2022-12-03T20:46:41.319Z,9.70
2022-12-03T20:49:09.148Z,9.63
2022-12-03T20:51:36.729Z,9.93
2022-12-03T20:54:04.991Z,10.40
2022-12-03T20:56:36.724Z,9.98
2022-12-03T20:59:08.371Z,9.18
2022-12-03T21:01:36.621Z,9.32
2022-12-03T21:04:05.906Z,9.98
2022-12-03T21:06:35.997Z,9.43
2022-12-03T21:09:05.538Z,9.57
2022-12-03T21:11:35.262Z,10.57
2022-12-03T21:14:03.874Z,8.82
2022-12-03T21:19:21.092Z,8.68
2022-12-03T21:21:48.750Z,8.73
2022-12-03T21:24:16.571Z,9.20
2022-12-03T21:26:45.923Z,9.27
2022-12-03T21:29:13.533Z,9.43
2022-12-03T21:31:41.269Z,9.30
2022-12-03T21:34:09.266Z,8.52
2022-12-03T21:36:36.926Z,8.63
2022-12-03T21:39:05.015Z,8.43
2022-12-03T21:41:32.975Z,7.70
2022-12-03T21:44:02.259Z,8.70
2022-12-03T21:47:11.640Z,7.78
2022-12-03T21:49:17.811Z,8.70
2022-12-03T21:51:45.742Z,8.18
2022-12-03T21:54:13.548Z,8.65
2022-12-03T21:56:41.353Z,8.35
2022-12-03T21:59:10.388Z,7.43
2022-12-03T22:01:39.673Z,8.15
2022-12-03T22:04:11.235Z,8.68
2022-12-03T22:06:38.813Z,7.60
2022-12-03T22:09:06.421Z,7.97
2022-12-03T22:11:34.307Z,7.53
2022-12-03T22:14:01.994Z,7.53
2022-12-03T22:16:31.276Z,7.60
2022-12-03T22:18:59.308Z,7.60
2022-12-03T22:21:26.912Z,7.95
2022-12-03T22:23:56.161Z,8.98
2022-12-03T22:26:23.859Z,8.30
2022-12-03T22:28:51.489Z,7.85
2022-12-03T22:31:19.315Z,9.05
2022-12-03T22:33:48.748Z,8.38
2022-12-03T22:36:21.101Z,7.70
2022-12-03T22:38:50.072Z,6.20
2022-12-03T22:41:18.730Z,7.60
2022-12-03T22:43:47.735Z,7.55
2022-12-03T22:46:15.791Z,6.68
2022-12-03T22:48:45.092Z,6.63
2022-12-03T22:51:16.052Z,6.82
